sensor_id;sensor_type;location;lat;lon;timestamp;P1;durP1;ratioP1;P2;durP2;ratioP2
33987;SDS011;37428;53.580;-1.666;2022-08-05T00:00:41;6.30;;;1.20;;
33987;SDS011;37428;53.580;-1.666;2022-08-05T00:03:49;3.45;;;0.82;;
33987;SDS011;37428;53.580;-1.666;2022-08-05T00:07:03;9.40;;;2.85;;
33987;SDS011;37428;53.580;-1.666;2022-08-05T00:10:07;5.85;;;1.25;;
33987;SDS011;37428;53.580;-1.666;2022-08-05T00:13:10;3.75;;;1.02;;
33987;SDS011;37428;53.580;-1.666;2022-08-05T00:16:14;2.08;;;0.73;;
33987;SDS011;37428;53.580;-1.666;2022-08-05T00:19:25;7.32;;;1.02;;
33987;SDS011;37428;53.580;-1.666;2022-08-05T00:22:29;3.80;;;0.90;;
33987;SDS011;37428;53.580;-1.666;2022-08-05T00:25:49;10.13;;;1.23;;
33987;SDS011;37428;53.580;-1.666;2022-08-05T00:29:24;5.38;;;1.45;;
33987;SDS011;37428;53.580;-1.666;2022-08-05T00:32:31;4.20;;;1.23;;
33987;SDS011;37428;53.580;-1.666;2022-08-05T00:39:19;5.15;;;1.20;;
33987;SDS011;37428;53.580;-1.666;2022-08-05T00:42:33;7.88;;;1.30;;
33987;SDS011;37428;53.580;-1.666;2022-08-05T00:48:43;9.13;;;1.10;;
33987;SDS011;37428;53.580;-1.666;2022-08-05T00:51:49;4.05;;;0.90;;
33987;SDS011;37428;53.580;-1.666;2022-08-05T00:54:56;4.85;;;1.08;;
33987;SDS011;37428;53.580;-1.666;2022-08-05T00:58:00;6.93;;;1.00;;
33987;SDS011;37428;53.580;-1.666;2022-08-05T01:01:10;8.10;;;1.23;;
33987;SDS011;37428;53.580;-1.666;2022-08-05T01:04:14;5.00;;;0.88;;
33987;SDS011;37428;53.580;-1.666;2022-08-05T01:10:53;3.67;;;0.90;;
33987;SDS011;37428;53.580;-1.666;2022-08-05T01:14:02;3.67;;;0.70;;
33987;SDS011;37428;53.580;-1.666;2022-08-05T01:17:16;10.43;;;0.90;;
33987;SDS011;37428;53.580;-1.666;2022-08-05T01:20:36;5.70;;;1.02;;
33987;SDS011;37428;53.580;-1.666;2022-08-05T01:23:56;6.22;;;1.20;;
33987;SDS011;37428;53.580;-1.666;2022-08-05T01:27:17;9.27;;;1.38;;
33987;SDS011;37428;53.580;-1.666;2022-08-05T01:30:45;7.03;;;1.17;;
33987;SDS011;37428;53.580;-1.666;2022-08-05T01:33:55;5.13;;;0.80;;
33987;SDS011;37428;53.580;-1.666;2022-08-05T01:37:01;5.18;;;1.10;;
33987;SDS011;37428;53.580;-1.666;2022-08-05T01:40:08;7.22;;;0.95;;
33987;SDS011;37428;53.580;-1.666;2022-08-05T01:43:17;4.18;;;1.10;;
33987;SDS011;37428;53.580;-1.666;2022-08-05T01:46:22;5.80;;;1.10;;
33987;SDS011;37428;53.580;-1.666;2022-08-05T01:49:27;6.72;;;1.20;;
33987;SDS011;37428;53.580;-1.666;2022-08-05T01:52:36;8.68;;;1.10;;
33987;SDS011;37428;53.580;-1.666;2022-08-05T01:55:43;8.63;;;1.13;;
33987;SDS011;37428;53.580;-1.666;2022-08-05T01:58:47;7.78;;;0.98;;
33987;SDS011;37428;53.580;-1.666;2022-08-05T02:01:57;5.03;;;0.88;;
33987;SDS011;37428;53.580;-1.666;2022-08-05T02:05:06;7.22;;;1.90;;
33987;SDS011;37428;53.580;-1.666;2022-08-05T02:08:14;8.60;;;1.35;;
33987;SDS011;37428;53.580;-1.666;2022-08-05T02:11:17;4.32;;;0.80;;
33987;SDS011;37428;53.580;-1.666;2022-08-05T02:14:25;5.80;;;1.00;;
33987;SDS011;37428;53.580;-1.666;2022-08-05T02:17:44;7.13;;;1.10;;
33987;SDS011;37428;53.580;-1.666;2022-08-05T02:20:53;7.07;;;2.10;;
33987;SDS011;37428;53.580;-1.666;2022-08-05T02:24:16;8.52;;;1.10;;
33987;SDS011;37428;53.580;-1.666;2022-08-05T02:27:28;3.92;;;1.08;;
33987;SDS011;37428;53.580;-1.666;2022-08-05T02:30:38;8.80;;;1.17;;
33987;SDS011;37428;53.580;-1.666;2022-08-05T02:33:51;5.65;;;1.52;;
33987;SDS011;37428;53.580;-1.666;2022-08-05T02:36:58;9.85;;;1.30;;
33987;SDS011;37428;53.580;-1.666;2022-08-05T02:40:04;4.47;;;1.02;;
33987;SDS011;37428;53.580;-1.666;2022-08-05T02:43:09;6.13;;;1.45;;
33987;SDS011;37428;53.580;-1.666;2022-08-05T02:46:16;8.35;;;1.35;;
33987;SDS011;37428;53.580;-1.666;2022-08-05T02:49:28;5.55;;;1.17;;
33987;SDS011;37428;53.580;-1.666;2022-08-05T02:52:48;7.15;;;1.13;;
33987;SDS011;37428;53.580;-1.666;2022-08-05T02:55:57;8.38;;;1.35;;
33987;SDS011;37428;53.580;-1.666;2022-08-05T02:59:02;5.88;;;0.90;;
33987;SDS011;37428;53.580;-1.666;2022-08-05T03:02:06;8.70;;;1.27;;
33987;SDS011;37428;53.580;-1.666;2022-08-05T03:08:31;7.63;;;1.83;;
33987;SDS011;37428;53.580;-1.666;2022-08-05T03:11:48;2.88;;;0.95;;
33987;SDS011;37428;53.580;-1.666;2022-08-05T03:14:55;11.27;;;1.65;;
33987;SDS011;37428;53.580;-1.666;2022-08-05T03:17:57;7.65;;;1.83;;
33987;SDS011;37428;53.580;-1.666;2022-08-05T03:21:01;7.28;;;1.08;;
33987;SDS011;37428;53.580;-1.666;2022-08-05T03:24:05;9.63;;;1.27;;
33987;SDS011;37428;53.580;-1.666;2022-08-05T03:27:10;6.55;;;1.77;;
33987;SDS011;37428;53.580;-1.666;2022-08-05T03:30:24;7.70;;;1.10;;
33987;SDS011;37428;53.580;-1.666;2022-08-05T03:33:33;4.18;;;1.15;;
33987;SDS011;37428;53.580;-1.666;2022-08-05T03:36:40;8.85;;;1.05;;
33987;SDS011;37428;53.580;-1.666;2022-08-05T03:39:55;7.43;;;1.30;;
33987;SDS011;37428;53.580;-1.666;2022-08-05T03:42:59;5.60;;;1.20;;
33987;SDS011;37428;53.580;-1.666;2022-08-05T03:46:07;8.85;;;1.10;;
33987;SDS011;37428;53.580;-1.666;2022-08-05T03:49:23;5.82;;;0.90;;
33987;SDS011;37428;53.580;-1.666;2022-08-05T03:52:37;8.30;;;1.80;;
33987;SDS011;37428;53.580;-1.666;2022-08-05T03:55:48;9.48;;;1.48;;
33987;SDS011;37428;53.580;-1.666;2022-08-05T03:58:56;7.25;;;2.00;;
33987;SDS011;37428;53.580;-1.666;2022-08-05T04:02:07;10.25;;;2.03;;
33987;SDS011;37428;53.580;-1.666;2022-08-05T04:05:21;7.88;;;1.48;;
33987;SDS011;37428;53.580;-1.666;2022-08-05T04:08:34;8.23;;;1.60;;
33987;SDS011;37428;53.580;-1.666;2022-08-05T04:11:37;10.90;;;1.40;;
33987;SDS011;37428;53.580;-1.666;2022-08-05T04:14:46;11.50;;;1.50;;
33987;SDS011;37428;53.580;-1.666;2022-08-05T04:17:50;4.90;;;1.10;;
33987;SDS011;37428;53.580;-1.666;2022-08-05T04:20:58;5.97;;;1.63;;
33987;SDS011;37428;53.580;-1.666;2022-08-05T04:24:04;8.60;;;1.50;;
33987;SDS011;37428;53.580;-1.666;2022-08-05T04:27:07;9.00;;;1.20;;
33987;SDS011;37428;53.580;-1.666;2022-08-05T04:33:14;10.07;;;2.05;;
33987;SDS011;37428;53.580;-1.666;2022-08-05T04:36:20;7.68;;;1.17;;
33987;SDS011;37428;53.580;-1.666;2022-08-05T04:39:24;7.47;;;1.40;;
33987;SDS011;37428;53.580;-1.666;2022-08-05T04:42:32;5.45;;;1.08;;
33987;SDS011;37428;53.580;-1.666;2022-08-05T04:45:36;9.00;;;1.25;;
33987;SDS011;37428;53.580;-1.666;2022-08-05T04:48:42;9.93;;;1.38;;
33987;SDS011;37428;53.580;-1.666;2022-08-05T04:51:45;8.88;;;1.65;;
33987;SDS011;37428;53.580;-1.666;2022-08-05T04:54:49;5.15;;;1.35;;
33987;SDS011;37428;53.580;-1.666;2022-08-05T04:57:51;9.15;;;1.27;;
33987;SDS011;37428;53.580;-1.666;2022-08-05T05:00:53;5.55;;;1.15;;
33987;SDS011;37428;53.580;-1.666;2022-08-05T05:03:57;6.38;;;1.23;;
33987;SDS011;37428;53.580;-1.666;2022-08-05T05:06:59;6.38;;;1.50;;
33987;SDS011;37428;53.580;-1.666;2022-08-05T05:10:07;4.75;;;0.98;;
33987;SDS011;37428;53.580;-1.666;2022-08-05T05:13:11;4.93;;;1.05;;
33987;SDS011;37428;53.580;-1.666;2022-08-05T05:16:14;3.45;;;0.98;;
33987;SDS011;37428;53.580;-1.666;2022-08-05T05:19:16;3.15;;;1.30;;
33987;SDS011;37428;53.580;-1.666;2022-08-05T05:22:19;8.13;;;1.00;;
33987;SDS011;37428;53.580;-1.666;2022-08-05T05:25:25;3.28;;;1.02;;
33987;SDS011;37428;53.580;-1.666;2022-08-05T05:28:27;4.47;;;1.25;;
33987;SDS011;37428;53.580;-1.666;2022-08-05T05:31:30;4.75;;;1.20;;
33987;SDS011;37428;53.580;-1.666;2022-08-05T05:34:32;5.65;;;0.85;;
33987;SDS011;37428;53.580;-1.666;2022-08-05T05:40:50;5.38;;;1.00;;
33987;SDS011;37428;53.580;-1.666;2022-08-05T05:43:52;5.80;;;0.80;;
33987;SDS011;37428;53.580;-1.666;2022-08-05T05:46:54;7.53;;;1.35;;
33987;SDS011;37428;53.580;-1.666;2022-08-05T05:49:57;5.28;;;1.30;;
33987;SDS011;37428;53.580;-1.666;2022-08-05T05:52:59;7.68;;;1.30;;
33987;SDS011;37428;53.580;-1.666;2022-08-05T05:56:03;5.22;;;1.15;;
33987;SDS011;37428;53.580;-1.666;2022-08-05T05:59:06;6.45;;;1.27;;
33987;SDS011;37428;53.580;-1.666;2022-08-05T06:02:09;6.55;;;0.70;;
33987;SDS011;37428;53.580;-1.666;2022-08-05T06:08:14;3.35;;;0.90;;
33987;SDS011;37428;53.580;-1.666;2022-08-05T06:11:18;2.38;;;0.60;;
33987;SDS011;37428;53.580;-1.666;2022-08-05T06:14:21;2.15;;;0.75;;
33987;SDS011;37428;53.580;-1.666;2022-08-05T06:17:23;4.63;;;1.10;;
33987;SDS011;37428;53.580;-1.666;2022-08-05T06:20:26;2.50;;;0.77;;
33987;SDS011;37428;53.580;-1.666;2022-08-05T06:23:29;3.05;;;1.15;;
33987;SDS011;37428;53.580;-1.666;2022-08-05T06:26:33;3.83;;;0.65;;
33987;SDS011;37428;53.580;-1.666;2022-08-05T06:29:36;1.80;;;0.60;;
33987;SDS011;37428;53.580;-1.666;2022-08-05T06:32:38;7.47;;;1.13;;
33987;SDS011;37428;53.580;-1.666;2022-08-05T06:35:41;1.35;;;0.50;;
33987;SDS011;37428;53.580;-1.666;2022-08-05T06:38:43;1.40;;;0.45;;
33987;SDS011;37428;53.580;-1.666;2022-08-05T06:41:47;1.58;;;0.40;;
33987;SDS011;37428;53.580;-1.666;2022-08-05T06:44:50;0.80;;;0.43;;
33987;SDS011;37428;53.580;-1.666;2022-08-05T06:47:53;2.53;;;0.68;;
33987;SDS011;37428;53.580;-1.666;2022-08-05T06:50:55;1.23;;;0.50;;
33987;SDS011;37428;53.580;-1.666;2022-08-05T06:57:02;2.67;;;0.50;;
33987;SDS011;37428;53.580;-1.666;2022-08-05T07:00:05;3.22;;;0.55;;
33987;SDS011;37428;53.580;-1.666;2022-08-05T07:03:09;0.65;;;0.45;;
33987;SDS011;37428;53.580;-1.666;2022-08-05T07:06:12;4.60;;;0.52;;
33987;SDS011;37428;53.580;-1.666;2022-08-05T07:09:14;1.10;;;0.70;;
33987;SDS011;37428;53.580;-1.666;2022-08-05T07:12:18;3.47;;;0.77;;
33987;SDS011;37428;53.580;-1.666;2022-08-05T07:15:38;2.17;;;0.60;;
33987;SDS011;37428;53.580;-1.666;2022-08-05T07:19:09;0.35;;;0.25;;
33987;SDS011;37428;53.580;-1.666;2022-08-05T07:22:12;0.65;;;0.38;;
33987;SDS011;37428;53.580;-1.666;2022-08-05T07:25:14;1.00;;;1.00;;
33987;SDS011;37428;53.580;-1.666;2022-08-05T07:28:18;1.38;;;0.57;;
33987;SDS011;37428;53.580;-1.666;2022-08-05T07:31:21;0.68;;;0.40;;
33987;SDS011;37428;53.580;-1.666;2022-08-05T07:37:26;1.25;;;0.73;;
33987;SDS011;37428;53.580;-1.666;2022-08-05T07:40:29;4.90;;;0.88;;
33987;SDS011;37428;53.580;-1.666;2022-08-05T07:43:33;2.72;;;0.70;;
33987;SDS011;37428;53.580;-1.666;2022-08-05T07:46:35;2.35;;;0.70;;
33987;SDS011;37428;53.580;-1.666;2022-08-05T07:49:38;2.08;;;0.93;;
33987;SDS011;37428;53.580;-1.666;2022-08-05T07:55:43;2.05;;;0.85;;
33987;SDS011;37428;53.580;-1.666;2022-08-05T08:01:49;3.17;;;0.85;;
33987;SDS011;37428;53.580;-1.666;2022-08-05T08:07:54;2.27;;;0.90;;
33987;SDS011;37428;53.580;-1.666;2022-08-05T08:14:01;3.47;;;0.82;;
33987;SDS011;37428;53.580;-1.666;2022-08-05T08:17:03;4.63;;;1.00;;
33987;SDS011;37428;53.580;-1.666;2022-08-05T08:20:09;3.35;;;0.70;;
33987;SDS011;37428;53.580;-1.666;2022-08-05T08:23:12;3.92;;;1.08;;
33987;SDS011;37428;53.580;-1.666;2022-08-05T08:26:14;4.15;;;1.10;;
33987;SDS011;37428;53.580;-1.666;2022-08-05T08:29:19;6.05;;;1.30;;
33987;SDS011;37428;53.580;-1.666;2022-08-05T08:32:21;3.13;;;0.63;;
33987;SDS011;37428;53.580;-1.666;2022-08-05T08:35:24;3.75;;;1.05;;
33987;SDS011;37428;53.580;-1.666;2022-08-05T08:38:26;4.25;;;0.80;;
33987;SDS011;37428;53.580;-1.666;2022-08-05T08:41:39;4.13;;;0.88;;
33987;SDS011;37428;53.580;-1.666;2022-08-05T08:45:07;1.35;;;0.68;;
33987;SDS011;37428;53.580;-1.666;2022-08-05T08:48:42;3.33;;;1.20;;
33987;SDS011;37428;53.580;-1.666;2022-08-05T08:52:22;4.07;;;1.20;;
33987;SDS011;37428;53.580;-1.666;2022-08-05T08:56:15;3.75;;;1.05;;
33987;SDS011;37428;53.580;-1.666;2022-08-05T08:59:12;1.55;;;0.80;;
33987;SDS011;37428;53.580;-1.666;2022-08-05T09:09:37;2.53;;;0.65;;
33987;SDS011;37428;53.580;-1.666;2022-08-05T09:12:40;2.42;;;0.88;;
33987;SDS011;37428;53.580;-1.666;2022-08-05T09:15:43;2.05;;;0.80;;
33987;SDS011;37428;53.580;-1.666;2022-08-05T09:21:47;1.98;;;0.80;;
33987;SDS011;37428;53.580;-1.666;2022-08-05T09:28:10;3.03;;;0.77;;
33987;SDS011;37428;53.580;-1.666;2022-08-05T09:31:14;3.85;;;1.15;;
33987;SDS011;37428;53.580;-1.666;2022-08-05T09:34:17;2.10;;;0.77;;
33987;SDS011;37428;53.580;-1.666;2022-08-05T09:40:31;3.03;;;1.10;;
33987;SDS011;37428;53.580;-1.666;2022-08-05T09:43:36;3.35;;;0.80;;
33987;SDS011;37428;53.580;-1.666;2022-08-05T09:46:39;3.20;;;0.88;;
33987;SDS011;37428;53.580;-1.666;2022-08-05T09:52:46;1.73;;;0.60;;
33987;SDS011;37428;53.580;-1.666;2022-08-05T09:55:59;3.20;;;0.52;;
33987;SDS011;37428;53.580;-1.666;2022-08-05T09:59:03;4.20;;;1.08;;
33987;SDS011;37428;53.580;-1.666;2022-08-05T10:02:07;1.27;;;0.40;;
33987;SDS011;37428;53.580;-1.666;2022-08-05T10:05:11;4.60;;;0.77;;
33987;SDS011;37428;53.580;-1.666;2022-08-05T10:08:15;1.52;;;0.43;;
33987;SDS011;37428;53.580;-1.666;2022-08-05T10:11:27;1.08;;;0.40;;
33987;SDS011;37428;53.580;-1.666;2022-08-05T10:14:33;1.75;;;0.43;;
33987;SDS011;37428;53.580;-1.666;2022-08-05T10:17:36;1.20;;;0.60;;
33987;SDS011;37428;53.580;-1.666;2022-08-05T10:23:45;1.13;;;0.50;;
33987;SDS011;37428;53.580;-1.666;2022-08-05T10:27:04;1.92;;;0.60;;
33987;SDS011;37428;53.580;-1.666;2022-08-05T10:30:20;2.08;;;0.70;;
33987;SDS011;37428;53.580;-1.666;2022-08-05T10:33:37;3.40;;;0.80;;
33987;SDS011;37428;53.580;-1.666;2022-08-05T10:36:56;3.78;;;0.55;;
33987;SDS011;37428;53.580;-1.666;2022-08-05T10:40:17;1.48;;;0.77;;
33987;SDS011;37428;53.580;-1.666;2022-08-05T10:50:56;1.48;;;0.75;;
33987;SDS011;37428;53.580;-1.666;2022-08-05T10:54:04;2.85;;;0.60;;
33987;SDS011;37428;53.580;-1.666;2022-08-05T10:57:07;2.17;;;0.90;;
33987;SDS011;37428;53.580;-1.666;2022-08-05T11:00:32;3.97;;;0.88;;
33987;SDS011;37428;53.580;-1.666;2022-08-05T11:04:03;2.35;;;0.80;;
33987;SDS011;37428;53.580;-1.666;2022-08-05T11:07:13;2.88;;;0.77;;
33987;SDS011;37428;53.580;-1.666;2022-08-05T11:10:21;3.03;;;0.70;;
33987;SDS011;37428;53.580;-1.666;2022-08-05T11:13:42;2.97;;;0.97;;
33987;SDS011;37428;53.580;-1.666;2022-08-05T11:20:43;2.38;;;0.73;;
33987;SDS011;37428;53.580;-1.666;2022-08-05T11:24:05;2.65;;;0.73;;
33987;SDS011;37428;53.580;-1.666;2022-08-05T11:27:31;2.50;;;0.60;;
33987;SDS011;37428;53.580;-1.666;2022-08-05T11:34:10;3.08;;;0.52;;
33987;SDS011;37428;53.580;-1.666;2022-08-05T11:41:07;1.27;;;0.70;;
33987;SDS011;37428;53.580;-1.666;2022-08-05T11:44:26;2.10;;;0.55;;
33987;SDS011;37428;53.580;-1.666;2022-08-05T11:47:39;2.83;;;0.75;;
33987;SDS011;37428;53.580;-1.666;2022-08-05T11:51:04;1.88;;;0.70;;
33987;SDS011;37428;53.580;-1.666;2022-08-05T11:54:31;1.67;;;0.70;;
33987;SDS011;37428;53.580;-1.666;2022-08-05T11:57:33;1.58;;;0.43;;
33987;SDS011;37428;53.580;-1.666;2022-08-05T12:00:50;2.47;;;0.40;;
33987;SDS011;37428;53.580;-1.666;2022-08-05T12:04:21;1.98;;;0.55;;
33987;SDS011;37428;53.580;-1.666;2022-08-05T12:07:41;3.83;;;0.50;;
33987;SDS011;37428;53.580;-1.666;2022-08-05T12:10:53;2.90;;;0.57;;
33987;SDS011;37428;53.580;-1.666;2022-08-05T12:17:30;3.97;;;1.15;;
33987;SDS011;37428;53.580;-1.666;2022-08-05T12:20:54;0.63;;;0.40;;
33987;SDS011;37428;53.580;-1.666;2022-08-05T12:24:12;2.05;;;0.43;;
33987;SDS011;37428;53.580;-1.666;2022-08-05T12:30:59;3.15;;;1.00;;
33987;SDS011;37428;53.580;-1.666;2022-08-05T12:34:17;3.65;;;0.90;;
33987;SDS011;37428;53.580;-1.666;2022-08-05T12:37:35;4.22;;;0.93;;
33987;SDS011;37428;53.580;-1.666;2022-08-05T12:40:52;2.15;;;0.60;;
33987;SDS011;37428;53.580;-1.666;2022-08-05T12:43:59;1.33;;;0.40;;
33987;SDS011;37428;53.580;-1.666;2022-08-05T12:47:04;1.48;;;0.57;;
33987;SDS011;37428;53.580;-1.666;2022-08-05T12:50:11;0.95;;;0.32;;
33987;SDS011;37428;53.580;-1.666;2022-08-05T12:53:43;1.23;;;0.57;;
33987;SDS011;37428;53.580;-1.666;2022-08-05T12:56:50;1.90;;;0.70;;
33987;SDS011;37428;53.580;-1.666;2022-08-05T13:03:23;1.38;;;0.80;;
33987;SDS011;37428;53.580;-1.666;2022-08-05T13:09:53;2.60;;;0.90;;
33987;SDS011;37428;53.580;-1.666;2022-08-05T13:13:02;1.60;;;0.70;;
33987;SDS011;37428;53.580;-1.666;2022-08-05T13:16:20;2.55;;;0.73;;
33987;SDS011;37428;53.580;-1.666;2022-08-05T13:19:22;3.15;;;0.60;;
33987;SDS011;37428;53.580;-1.666;2022-08-05T13:22:34;1.95;;;0.85;;
33987;SDS011;37428;53.580;-1.666;2022-08-05T13:25:52;6.78;;;0.93;;
33987;SDS011;37428;53.580;-1.666;2022-08-05T13:28:56;3.22;;;0.63;;
33987;SDS011;37428;53.580;-1.666;2022-08-05T13:32:08;1.48;;;0.40;;
33987;SDS011;37428;53.580;-1.666;2022-08-05T13:35:12;2.45;;;0.68;;
33987;SDS011;37428;53.580;-1.666;2022-08-05T13:38:22;2.30;;;0.60;;
33987;SDS011;37428;53.580;-1.666;2022-08-05T13:41:30;2.35;;;0.73;;
33987;SDS011;37428;53.580;-1.666;2022-08-05T13:44:34;1.83;;;0.40;;
33987;SDS011;37428;53.580;-1.666;2022-08-05T13:47:44;1.80;;;0.70;;
33987;SDS011;37428;53.580;-1.666;2022-08-05T13:50:50;2.15;;;0.50;;
33987;SDS011;37428;53.580;-1.666;2022-08-05T13:53:58;0.70;;;0.40;;
33987;SDS011;37428;53.580;-1.666;2022-08-05T13:57:20;1.33;;;0.50;;
33987;SDS011;37428;53.580;-1.666;2022-08-05T14:00:29;0.88;;;0.70;;
33987;SDS011;37428;53.580;-1.666;2022-08-05T14:03:36;1.23;;;0.40;;
33987;SDS011;37428;53.580;-1.666;2022-08-05T14:06:44;0.63;;;0.40;;
33987;SDS011;37428;53.580;-1.666;2022-08-05T14:10:07;0.45;;;0.35;;
33987;SDS011;37428;53.580;-1.666;2022-08-05T14:13:16;2.05;;;0.75;;
33987;SDS011;37428;53.580;-1.666;2022-08-05T14:16:40;1.15;;;0.70;;
33987;SDS011;37428;53.580;-1.666;2022-08-05T14:20:02;0.98;;;0.60;;
33987;SDS011;37428;53.580;-1.666;2022-08-05T14:23:11;1.30;;;0.50;;
33987;SDS011;37428;53.580;-1.666;2022-08-05T14:27:49;0.43;;;0.30;;
33987;SDS011;37428;53.580;-1.666;2022-08-05T14:29:45;0.63;;;0.50;;
33987;SDS011;37428;53.580;-1.666;2022-08-05T14:32:59;1.52;;;0.50;;
33987;SDS011;37428;53.580;-1.666;2022-08-05T14:36:06;2.17;;;0.57;;
33987;SDS011;37428;53.580;-1.666;2022-08-05T14:39:26;5.20;;;0.68;;
33987;SDS011;37428;53.580;-1.666;2022-08-05T14:46:19;0.80;;;0.50;;
33987;SDS011;37428;53.580;-1.666;2022-08-05T14:49:22;1.13;;;0.40;;
33987;SDS011;37428;53.580;-1.666;2022-08-05T14:52:28;1.30;;;0.55;;
33987;SDS011;37428;53.580;-1.666;2022-08-05T14:55:32;0.28;;;0.28;;
33987;SDS011;37428;53.580;-1.666;2022-08-05T14:58:34;0.50;;;0.35;;
33987;SDS011;37428;53.580;-1.666;2022-08-05T15:01:36;1.33;;;0.45;;
33987;SDS011;37428;53.580;-1.666;2022-08-05T15:04:44;0.93;;;0.40;;
33987;SDS011;37428;53.580;-1.666;2022-08-05T15:07:55;1.45;;;0.50;;
33987;SDS011;37428;53.580;-1.666;2022-08-05T15:11:11;1.15;;;0.43;;
33987;SDS011;37428;53.580;-1.666;2022-08-05T15:14:13;1.17;;;0.68;;
33987;SDS011;37428;53.580;-1.666;2022-08-05T15:17:19;1.45;;;0.40;;
33987;SDS011;37428;53.580;-1.666;2022-08-05T15:20:49;0.50;;;0.35;;
33987;SDS011;37428;53.580;-1.666;2022-08-05T15:24:08;1.58;;;0.30;;
33987;SDS011;37428;53.580;-1.666;2022-08-05T15:27:14;0.50;;;0.20;;
33987;SDS011;37428;53.580;-1.666;2022-08-05T15:30:16;1.15;;;0.40;;
33987;SDS011;37428;53.580;-1.666;2022-08-05T15:33:20;1.05;;;0.40;;
33987;SDS011;37428;53.580;-1.666;2022-08-05T15:36:23;2.20;;;0.85;;
33987;SDS011;37428;53.580;-1.666;2022-08-05T15:39:32;1.05;;;0.35;;
33987;SDS011;37428;53.580;-1.666;2022-08-05T15:42:35;3.13;;;0.60;;
33987;SDS011;37428;53.580;-1.666;2022-08-05T15:46:02;2.38;;;0.60;;
33987;SDS011;37428;53.580;-1.666;2022-08-05T15:49:17;4.32;;;0.52;;
33987;SDS011;37428;53.580;-1.666;2022-08-05T15:52:39;1.00;;;0.33;;
33987;SDS011;37428;53.580;-1.666;2022-08-05T15:56:05;1.83;;;0.30;;
33987;SDS011;37428;53.580;-1.666;2022-08-05T15:59:15;0.75;;;0.20;;
33987;SDS011;37428;53.580;-1.666;2022-08-05T16:02:20;0.85;;;0.32;;
33987;SDS011;37428;53.580;-1.666;2022-08-05T16:05:28;2.38;;;0.38;;
33987;SDS011;37428;53.580;-1.666;2022-08-05T16:08:34;0.93;;;0.25;;
33987;SDS011;37428;53.580;-1.666;2022-08-05T16:11:43;1.52;;;0.30;;
33987;SDS011;37428;53.580;-1.666;2022-08-05T16:15:02;1.92;;;0.20;;
33987;SDS011;37428;53.580;-1.666;2022-08-05T16:18:07;3.03;;;0.30;;
33987;SDS011;37428;53.580;-1.666;2022-08-05T16:21:39;2.72;;;0.60;;
33987;SDS011;37428;53.580;-1.666;2022-08-05T16:24:48;1.73;;;0.57;;
33987;SDS011;37428;53.580;-1.666;2022-08-05T16:31:24;2.65;;;0.90;;
33987;SDS011;37428;53.580;-1.666;2022-08-05T16:34:44;1.58;;;1.13;;
33987;SDS011;37428;53.580;-1.666;2022-08-05T16:38:00;2.53;;;1.00;;
33987;SDS011;37428;53.580;-1.666;2022-08-05T16:41:28;1.58;;;0.63;;
33987;SDS011;37428;53.580;-1.666;2022-08-05T16:44:45;2.92;;;0.98;;
33987;SDS011;37428;53.580;-1.666;2022-08-05T16:47:49;1.20;;;0.93;;
33987;SDS011;37428;53.580;-1.666;2022-08-05T16:50:59;1.35;;;0.93;;
33987;SDS011;37428;53.580;-1.666;2022-08-05T16:54:27;2.15;;;1.33;;
33987;SDS011;37428;53.580;-1.666;2022-08-05T17:01:34;3.97;;;1.10;;
33987;SDS011;37428;53.580;-1.666;2022-08-05T17:04:57;1.67;;;0.90;;
33987;SDS011;37428;53.580;-1.666;2022-08-05T17:08:13;2.40;;;1.40;;
33987;SDS011;37428;53.580;-1.666;2022-08-05T17:11:42;2.15;;;1.45;;
33987;SDS011;37428;53.580;-1.666;2022-08-05T17:15:14;3.60;;;3.22;;
33987;SDS011;37428;53.580;-1.666;2022-08-05T17:18:50;4.15;;;2.33;;
33987;SDS011;37428;53.580;-1.666;2022-08-05T17:21:58;2.25;;;2.00;;
33987;SDS011;37428;53.580;-1.666;2022-08-05T17:25:10;6.82;;;2.63;;
33987;SDS011;37428;53.580;-1.666;2022-08-05T17:28:12;3.85;;;2.10;;
33987;SDS011;37428;53.580;-1.666;2022-08-05T17:31:17;4.03;;;2.80;;
33987;SDS011;37428;53.580;-1.666;2022-08-05T17:34:39;3.53;;;2.70;;
33987;SDS011;37428;53.580;-1.666;2022-08-05T17:37:55;3.95;;;3.13;;
33987;SDS011;37428;53.580;-1.666;2022-08-05T17:41:19;3.80;;;3.25;;
33987;SDS011;37428;53.580;-1.666;2022-08-05T17:44:24;5.57;;;3.63;;
33987;SDS011;37428;53.580;-1.666;2022-08-05T17:47:32;3.72;;;3.10;;
33987;SDS011;37428;53.580;-1.666;2022-08-05T17:50:44;5.85;;;3.33;;
33987;SDS011;37428;53.580;-1.666;2022-08-05T17:54:11;5.40;;;3.47;;
33987;SDS011;37428;53.580;-1.666;2022-08-05T17:57:37;5.00;;;4.22;;
33987;SDS011;37428;53.580;-1.666;2022-08-05T18:00:42;5.03;;;4.30;;
33987;SDS011;37428;53.580;-1.666;2022-08-05T18:04:00;4.53;;;4.10;;
33987;SDS011;37428;53.580;-1.666;2022-08-05T18:11:01;5.72;;;4.70;;
33987;SDS011;37428;53.580;-1.666;2022-08-05T18:14:02;5.57;;;4.90;;
33987;SDS011;37428;53.580;-1.666;2022-08-05T18:17:08;6.07;;;5.47;;
33987;SDS011;37428;53.580;-1.666;2022-08-05T18:20:38;7.15;;;6.22;;
33987;SDS011;37428;53.580;-1.666;2022-08-05T18:27:23;8.43;;;5.63;;
33987;SDS011;37428;53.580;-1.666;2022-08-05T18:30:41;9.35;;;5.93;;
33987;SDS011;37428;53.580;-1.666;2022-08-05T18:38:01;6.90;;;6.13;;
33987;SDS011;37428;53.580;-1.666;2022-08-05T18:45:06;6.30;;;5.70;;
33987;SDS011;37428;53.580;-1.666;2022-08-05T18:48:13;7.32;;;6.63;;
33987;SDS011;37428;53.580;-1.666;2022-08-05T18:51:29;6.55;;;5.38;;
33987;SDS011;37428;53.580;-1.666;2022-08-05T18:55:20;9.32;;;6.25;;
33987;SDS011;37428;53.580;-1.666;2022-08-05T19:01:53;6.53;;;5.85;;
33987;SDS011;37428;53.580;-1.666;2022-08-05T19:05:08;6.40;;;5.10;;
33987;SDS011;37428;53.580;-1.666;2022-08-05T19:08:40;6.88;;;6.28;;
33987;SDS011;37428;53.580;-1.666;2022-08-05T19:12:12;8.18;;;6.80;;
33987;SDS011;37428;53.580;-1.666;2022-08-05T19:22:20;10.25;;;7.07;;
33987;SDS011;37428;53.580;-1.666;2022-08-05T19:25:40;7.55;;;6.85;;
33987;SDS011;37428;53.580;-1.666;2022-08-05T19:34:01;10.20;;;8.50;;
33987;SDS011;37428;53.580;-1.666;2022-08-05T19:36:13;12.10;;;8.40;;
33987;SDS011;37428;53.580;-1.666;2022-08-05T19:46:54;8.77;;;7.85;;
33987;SDS011;37428;53.580;-1.666;2022-08-05T19:53:37;13.90;;;10.77;;
33987;SDS011;37428;53.580;-1.666;2022-08-05T19:57:15;12.13;;;11.00;;
33987;SDS011;37428;53.580;-1.666;2022-08-05T20:00:47;13.20;;;11.93;;
33987;SDS011;37428;53.580;-1.666;2022-08-05T20:03:52;11.27;;;10.27;;
33987;SDS011;37428;53.580;-1.666;2022-08-05T20:06:56;14.63;;;11.35;;
33987;SDS011;37428;53.580;-1.666;2022-08-05T20:10:05;13.88;;;11.80;;
33987;SDS011;37428;53.580;-1.666;2022-08-05T20:13:23;15.38;;;11.88;;
33987;SDS011;37428;53.580;-1.666;2022-08-05T20:16:49;13.55;;;12.15;;
33987;SDS011;37428;53.580;-1.666;2022-08-05T20:20:21;16.30;;;13.18;;
33987;SDS011;37428;53.580;-1.666;2022-08-05T20:23:38;14.30;;;12.75;;
33987;SDS011;37428;53.580;-1.666;2022-08-05T20:26:52;14.23;;;12.73;;
33987;SDS011;37428;53.580;-1.666;2022-08-05T20:29:55;21.20;;;14.95;;
33987;SDS011;37428;53.580;-1.666;2022-08-05T20:33:25;17.20;;;14.52;;
33987;SDS011;37428;53.580;-1.666;2022-08-05T20:36:48;16.83;;;13.93;;
33987;SDS011;37428;53.580;-1.666;2022-08-05T20:40:08;17.20;;;15.23;;
33987;SDS011;37428;53.580;-1.666;2022-08-05T20:43:50;16.60;;;14.55;;
33987;SDS011;37428;53.580;-1.666;2022-08-05T20:47:00;15.38;;;13.80;;
33987;SDS011;37428;53.580;-1.666;2022-08-05T20:50:39;16.58;;;14.98;;
33987;SDS011;37428;53.580;-1.666;2022-08-05T20:54:13;17.02;;;14.82;;
33987;SDS011;37428;53.580;-1.666;2022-08-05T20:58:16;17.35;;;14.25;;
33987;SDS011;37428;53.580;-1.666;2022-08-05T21:01:37;15.73;;;14.05;;
33987;SDS011;37428;53.580;-1.666;2022-08-05T21:06:19;15.98;;;13.68;;
33987;SDS011;37428;53.580;-1.666;2022-08-05T21:08:31;16.23;;;14.00;;
33987;SDS011;37428;53.580;-1.666;2022-08-05T21:11:57;14.73;;;12.80;;
33987;SDS011;37428;53.580;-1.666;2022-08-05T21:15:26;15.60;;;12.73;;
33987;SDS011;37428;53.580;-1.666;2022-08-05T21:18:33;20.77;;;12.73;;
33987;SDS011;37428;53.580;-1.666;2022-08-05T21:21:45;17.27;;;11.57;;